createdAt,value
2018-05-25T00:00:05.968Z,1031.83247199
2018-05-25T00:00:18.491Z,1031.83247199
2018-05-25T00:00:30.917Z,1031.83247199
2018-05-25T00:00:43.335Z,1031.83247199
2018-05-25T00:00:55.743Z,1031.83247199
2018-05-25T00:01:08.176Z,1031.86633587
2018-05-25T00:01:20.599Z,1031.86633587
2018-05-25T00:01:33.009Z,1031.86633587
2018-05-25T00:01:45.401Z,1031.86633587
2018-05-25T00:01:57.951Z,1031.86633587
2018-05-25T00:02:10.370Z,1031.79860811
2018-05-25T00:02:22.776Z,1031.79860811
2018-05-25T00:02:35.187Z,1031.79860811
2018-05-25T00:02:47.583Z,1031.79860811
2018-05-25T00:02:59.980Z,1031.79860811
2018-05-25T00:03:12.406Z,1031.86633587
2018-05-25T00:03:24.817Z,1031.86633587
2018-05-25T00:03:37.229Z,1031.86633587
2018-05-25T00:03:49.640Z,1031.86633587
2018-05-25T00:04:02.055Z,1031.86633587
2018-05-25T00:04:14.465Z,1031.90019975
2018-05-25T00:04:26.876Z,1031.90019975
2018-05-25T00:04:39.307Z,1031.90019975
2018-05-25T00:04:51.705Z,1031.90019975
2018-05-25T00:05:04.130Z,1031.76474423
2018-05-25T00:05:16.714Z,1031.76474423
2018-05-25T00:05:29.165Z,1031.76474423
2018-05-25T00:05:41.580Z,1031.76474423
2018-05-25T00:05:54.038Z,1031.76474423
2018-05-25T00:06:06.456Z,1031.86633587
2018-05-25T00:06:18.883Z,1031.86633587
2018-05-25T00:06:31.280Z,1031.86633587
2018-05-25T00:06:43.686Z,1031.86633587
2018-05-25T00:06:56.080Z,1031.86633587
2018-05-25T00:07:08.535Z,1031.86633587
2018-05-25T00:07:20.953Z,1031.86633587
2018-05-25T00:07:33.375Z,1031.86633587
2018-05-25T00:07:45.796Z,1031.86633587
2018-05-25T00:07:58.207Z,1031.86633587
2018-05-25T00:08:10.619Z,1031.83247199
2018-05-25T00:08:23.045Z,1031.83247199
2018-05-25T00:08:35.447Z,1031.83247199
2018-05-25T00:08:47.855Z,1031.83247199
2018-05-25T00:09:00.260Z,1031.83247199
2018-05-25T00:09:12.665Z,1031.86633587
2018-05-25T00:09:25.066Z,1031.86633587
2018-05-25T00:09:37.505Z,1031.86633587
2018-05-25T00:09:49.909Z,1031.86633587
2018-05-25T00:10:02.340Z,1031.86633587
2018-05-25T00:10:14.786Z,1031.90019975
2018-05-25T00:10:27.190Z,1031.90019975
2018-05-25T00:10:39.609Z,1031.90019975
2018-05-25T00:10:52.032Z,1031.90019975
2018-05-25T00:11:04.446Z,1031.90019975
2018-05-25T00:11:16.854Z,1031.90019975
2018-05-25T00:11:29.255Z,1031.90019975
2018-05-25T00:11:41.668Z,1031.90019975
2018-05-25T00:11:54.079Z,1031.90019975
2018-05-25T00:12:06.487Z,1031.86633587
2018-05-25T00:12:18.895Z,1031.86633587
2018-05-25T00:12:31.305Z,1031.86633587
2018-05-25T00:12:43.713Z,1031.86633587
2018-05-25T00:12:56.124Z,1031.86633587
2018-05-25T00:13:08.523Z,1031.83247199
2018-05-25T00:13:20.914Z,1031.83247199
2018-05-25T00:13:33.335Z,1031.83247199
2018-05-25T00:13:45.749Z,1031.83247199
2018-05-25T00:13:58.161Z,1031.83247199
2018-05-25T00:14:10.596Z,1031.86633587
2018-05-25T00:14:23.012Z,1031.86633587
2018-05-25T00:14:35.424Z,1031.86633587
2018-05-25T00:14:47.823Z,1031.86633587
2018-05-25T00:15:00.236Z,1031.86633587
2018-05-25T00:15:12.732Z,1031.90019975
2018-05-25T00:15:25.144Z,1031.90019975
2018-05-25T00:15:37.558Z,1031.90019975
2018-05-25T00:15:49.964Z,1031.90019975
2018-05-25T00:16:02.361Z,1031.90019975
2018-05-25T00:16:14.763Z,1031.83247199
2018-05-25T00:16:27.169Z,1031.83247199
2018-05-25T00:16:39.567Z,1031.83247199
2018-05-25T00:16:51.973Z,1031.83247199
2018-05-25T00:17:04.395Z,1031.93406364
2018-05-25T00:17:16.800Z,1031.93406364
2018-05-25T00:17:29.211Z,1031.93406364
2018-05-25T00:17:41.627Z,1031.93406364
2018-05-25T00:17:54.672Z,1031.93406364
2018-05-25T00:18:07.147Z,1031.93406364
2018-05-25T00:18:19.787Z,1031.93406364
2018-05-25T00:18:32.208Z,1031.93406364
2018-05-25T00:18:44.657Z,1031.93406364
2018-05-25T00:18:57.081Z,1031.93406364
2018-05-25T00:19:09.489Z,1031.93406364
2018-05-25T00:19:21.904Z,1031.93406364
2018-05-25T00:19:34.307Z,1031.93406364
2018-05-25T00:19:46.710Z,1031.93406364
2018-05-25T00:19:59.108Z,1031.93406364
2018-05-25T00:20:11.518Z,1031.86633587
2018-05-25T00:20:23.929Z,1031.86633587
2018-05-25T00:20:36.353Z,1031.86633587
2018-05-25T00:20:48.750Z,1031.86633587
2018-05-25T00:21:01.158Z,1031.86633587
2018-05-25T00:21:13.572Z,1031.86633587
2018-05-25T00:21:25.986Z,1031.86633587
2018-05-25T00:21:38.384Z,1031.86633587
2018-05-25T00:21:50.783Z,1031.86633587
2018-05-25T00:22:03.189Z,1031.93406364
2018-05-25T00:22:15.605Z,1031.93406364
2018-05-25T00:22:28.011Z,1031.93406364
2018-05-25T00:22:40.422Z,1031.93406364
2018-05-25T00:22:52.995Z,1031.93406364
2018-05-25T00:23:05.458Z,1031.96792752
2018-05-25T00:23:17.863Z,1031.96792752
2018-05-25T00:23:30.258Z,1031.96792752
2018-05-25T00:23:42.666Z,1031.96792752
2018-05-25T00:23:55.070Z,1031.96792752
2018-05-25T00:24:07.475Z,1031.93406364
2018-05-25T00:24:19.902Z,1031.93406364
2018-05-25T00:24:32.309Z,1031.93406364
2018-05-25T00:24:44.937Z,1031.93406364
2018-05-25T00:24:57.815Z,1031.93406364
2018-05-25T00:25:10.237Z,1031.79860811
2018-05-25T00:25:22.652Z,1031.79860811
2018-05-25T00:25:35.062Z,1031.79860811
2018-05-25T00:25:47.476Z,1031.79860811
2018-05-25T00:25:59.893Z,1031.79860811
2018-05-25T00:26:12.309Z,1031.86633587
2018-05-25T00:26:24.716Z,1031.86633587
2018-05-25T00:26:37.130Z,1031.86633587
2018-05-25T00:26:49.547Z,1031.86633587
2018-05-25T00:27:01.946Z,1031.86633587
2018-05-25T00:27:14.363Z,1031.93406364
2018-05-25T00:27:26.790Z,1031.93406364
2018-05-25T00:27:39.200Z,1031.93406364
2018-05-25T00:27:51.768Z,1031.93406364
2018-05-25T00:28:04.169Z,1031.83247199
2018-05-25T00:28:16.563Z,1031.83247199
2018-05-25T00:28:28.975Z,1031.83247199
2018-05-25T00:28:41.388Z,1031.83247199
2018-05-25T00:28:53.790Z,1031.83247199
2018-05-25T00:29:06.211Z,1031.83247199
2018-05-25T00:29:18.626Z,1031.83247199
2018-05-25T00:29:31.064Z,1031.83247199
2018-05-25T00:29:43.469Z,1031.83247199
2018-05-25T00:29:55.875Z,1031.83247199
2018-05-25T00:30:08.287Z,1031.86633587
2018-05-25T00:30:20.689Z,1031.86633587
2018-05-25T00:30:33.096Z,1031.86633587
2018-05-25T00:30:45.528Z,1031.86633587
2018-05-25T00:30:57.953Z,1031.86633587
2018-05-25T00:31:10.367Z,1031.90019975
2018-05-25T00:31:22.778Z,1031.90019975
2018-05-25T00:31:35.215Z,1031.90019975
2018-05-25T00:31:47.621Z,1031.90019975
2018-05-25T00:32:00.059Z,1031.90019975
2018-05-25T00:32:12.461Z,1031.93406364
2018-05-25T00:32:24.869Z,1031.93406364
2018-05-25T00:32:37.284Z,1031.93406364
2018-05-25T00:32:49.747Z,1031.93406364
2018-05-25T00:33:02.177Z,1031.93406364
2018-05-25T00:33:14.636Z,1031.86633587
2018-05-25T00:33:27.058Z,1031.86633587
2018-05-25T00:33:39.481Z,1031.86633587
2018-05-25T00:33:51.884Z,1031.86633587
2018-05-25T00:34:04.294Z,1031.90019975
2018-05-25T00:34:16.706Z,1031.90019975
2018-05-25T00:34:29.113Z,1031.90019975
2018-05-25T00:34:41.526Z,1031.90019975
2018-05-25T00:34:53.930Z,1031.90019975
2018-05-25T00:35:06.343Z,1031.86633587
2018-05-25T00:35:18.762Z,1031.86633587
2018-05-25T00:35:31.185Z,1031.86633587
2018-05-25T00:35:43.585Z,1031.86633587
2018-05-25T00:35:56.037Z,1031.86633587
2018-05-25T00:36:08.445Z,1031.90019975
2018-05-25T00:36:20.852Z,1031.90019975
2018-05-25T00:36:33.268Z,1031.90019975
2018-05-25T00:36:45.674Z,1031.90019975
2018-05-25T00:36:58.083Z,1031.90019975
2018-05-25T00:37:10.487Z,1031.96792752
2018-05-25T00:37:22.903Z,1031.96792752
2018-05-25T00:37:35.302Z,1031.96792752
2018-05-25T00:37:47.775Z,1031.96792752
2018-05-25T00:38:00.190Z,1031.96792752
2018-05-25T00:38:12.749Z,1031.90019975
2018-05-25T00:38:25.153Z,1031.90019975
2018-05-25T00:38:37.547Z,1031.90019975
2018-05-25T00:38:49.942Z,1031.90019975
2018-05-25T00:39:02.342Z,1031.90019975
2018-05-25T00:39:14.753Z,1031.96792752
2018-05-25T00:39:27.144Z,1031.96792752
2018-05-25T00:39:39.540Z,1031.96792752
2018-05-25T00:39:51.937Z,1031.96792752
2018-05-25T00:40:04.338Z,1031.86633587
2018-05-25T00:40:16.750Z,1031.86633587
2018-05-25T00:40:29.169Z,1031.86633587
2018-05-25T00:40:41.565Z,1031.86633587
2018-05-25T00:40:53.982Z,1031.86633587
2018-05-25T00:41:06.606Z,1031.86633587
2018-05-25T00:41:19.048Z,1031.86633587
2018-05-25T00:41:31.502Z,1031.86633587
2018-05-25T00:41:43.888Z,1031.86633587
2018-05-25T00:41:56.289Z,1031.86633587
2018-05-25T00:42:08.702Z,1031.86633587
2018-05-25T00:42:21.113Z,1031.86633587
2018-05-25T00:42:33.517Z,1031.86633587
2018-05-25T00:42:45.937Z,1031.86633587
2018-05-25T00:42:58.345Z,1031.86633587
2018-05-25T00:43:10.763Z,1031.93406364
2018-05-25T00:43:23.162Z,1031.93406364
2018-05-25T00:43:35.575Z,1031.93406364
2018-05-25T00:43:47.972Z,1031.93406364
2018-05-25T00:44:00.385Z,1031.93406364
2018-05-25T00:44:12.773Z,1031.86633587
2018-05-25T00:44:25.179Z,1031.86633587
2018-05-25T00:44:37.568Z,1031.86633587
2018-05-25T00:44:49.969Z,1031.86633587
2018-05-25T00:45:02.371Z,1031.86633587
2018-05-25T00:45:14.780Z,1031.90019975
2018-05-25T00:45:27.183Z,1031.90019975
2018-05-25T00:45:39.588Z,1031.90019975
2018-05-25T00:45:52.008Z,1031.90019975
2018-05-25T00:46:04.454Z,1031.86633587
2018-05-25T00:46:16.892Z,1031.86633587
2018-05-25T00:46:29.289Z,1031.86633587
2018-05-25T00:46:41.699Z,1031.86633587
2018-05-25T00:46:54.097Z,1031.86633587
2018-05-25T00:47:06.535Z,1031.86633587
2018-05-25T00:47:18.945Z,1031.86633587
2018-05-25T00:47:31.374Z,1031.86633587
2018-05-25T00:47:43.784Z,1031.86633587
2018-05-25T00:47:56.183Z,1031.86633587
2018-05-25T00:48:08.582Z,1031.86633587
2018-05-25T00:48:21.127Z,1031.86633587
2018-05-25T00:48:33.588Z,1031.86633587
2018-05-25T00:48:46.053Z,1031.86633587
2018-05-25T00:48:58.457Z,1031.86633587
2018-05-25T00:49:10.877Z,1031.83247199
2018-05-25T00:49:23.275Z,1031.83247199
2018-05-25T00:49:36.020Z,1031.83247199
2018-05-25T00:49:48.477Z,1031.83247199
2018-05-25T00:50:00.865Z,1031.83247199
2018-05-25T00:50:13.280Z,1031.83247199
2018-05-25T00:50:26.038Z,1031.83247199
2018-05-25T00:50:38.683Z,1031.83247199
2018-05-25T00:50:51.090Z,1031.83247199
2018-05-25T00:51:03.492Z,1031.93406364
2018-05-25T00:51:15.895Z,1031.93406364
2018-05-25T00:51:28.311Z,1031.93406364
2018-05-25T00:51:40.705Z,1031.93406364
2018-05-25T00:51:53.118Z,1031.93406364
2018-05-25T00:52:05.568Z,1031.83247199
2018-05-25T00:52:18.114Z,1031.83247199
2018-05-25T00:52:30.510Z,1031.83247199
2018-05-25T00:52:42.895Z,1031.83247199
2018-05-25T00:52:55.287Z,1031.83247199
2018-05-25T00:53:07.683Z,1031.83247199
2018-05-25T00:53:20.118Z,1031.83247199
2018-05-25T00:53:32.531Z,1031.83247199
2018-05-25T00:53:44.929Z,1031.83247199
2018-05-25T00:53:57.338Z,1031.83247199
2018-05-25T00:54:09.739Z,1031.86633587
2018-05-25T00:54:22.149Z,1031.86633587
2018-05-25T00:54:34.550Z,1031.86633587
2018-05-25T00:54:47.101Z,1031.86633587
2018-05-25T00:54:59.546Z,1031.86633587
2018-05-25T00:55:11.997Z,1031.76474423
2018-05-25T00:55:24.494Z,1031.76474423
2018-05-25T00:55:36.923Z,1031.76474423
2018-05-25T00:55:49.381Z,1031.76474423
2018-05-25T00:56:01.783Z,1031.76474423
2018-05-25T00:56:14.168Z,1031.76474423
2018-05-25T00:56:26.562Z,1031.76474423
2018-05-25T00:56:39.023Z,1031.76474423
2018-05-25T00:56:51.425Z,1031.76474423
2018-05-25T00:57:03.820Z,1031.69701647
2018-05-25T00:57:16.264Z,1031.69701647
2018-05-25T00:57:28.666Z,1031.69701647
2018-05-25T00:57:41.070Z,1031.69701647
2018-05-25T00:57:53.498Z,1031.69701647
2018-05-25T00:58:05.904Z,1031.79860811
2018-05-25T00:58:18.325Z,1031.79860811
2018-05-25T00:58:30.728Z,1031.79860811
2018-05-25T00:58:43.154Z,1031.79860811
2018-05-25T00:58:55.554Z,1031.79860811
2018-05-25T00:59:07.960Z,1031.83247199
2018-05-25T00:59:20.362Z,1031.83247199
2018-05-25T00:59:32.803Z,1031.83247199
2018-05-25T00:59:45.264Z,1031.83247199
2018-05-25T00:59:57.659Z,1031.83247199
2018-05-25T01:00:10.068Z,1031.76474423
2018-05-25T01:00:22.516Z,1031.76474423
2018-05-25T01:00:35.108Z,1031.76474423
2018-05-25T01:00:47.542Z,1031.76474423
2018-05-25T01:00:59.969Z,1031.76474423
2018-05-25T01:01:12.408Z,1031.83247199
2018-05-25T01:01:24.837Z,1031.83247199
2018-05-25T01:01:37.248Z,1031.83247199
2018-05-25T01:01:49.844Z,1031.83247199
2018-05-25T01:02:02.263Z,1031.83247199
2018-05-25T01:02:14.650Z,1031.86633587
2018-05-25T01:02:27.050Z,1031.86633587
2018-05-25T01:02:39.451Z,1031.86633587
2018-05-25T01:02:51.855Z,1031.86633587
2018-05-25T01:03:04.261Z,1031.83247199
2018-05-25T01:03:16.693Z,1031.83247199
2018-05-25T01:03:29.104Z,1031.83247199
2018-05-25T01:03:41.518Z,1031.83247199
2018-05-25T01:03:53.921Z,1031.83247199
2018-05-25T01:04:06.307Z,1031.76474423
2018-05-25T01:04:18.712Z,1031.76474423
2018-05-25T01:04:31.178Z,1031.76474423
2018-05-25T01:04:43.631Z,1031.76474423
2018-05-25T01:04:56.051Z,1031.76474423
2018-05-25T01:05:08.624Z,1031.86633587
2018-05-25T01:05:21.048Z,1031.86633587
2018-05-25T01:05:33.457Z,1031.86633587
2018-05-25T01:05:45.856Z,1031.86633587
2018-05-25T01:05:58.266Z,1031.86633587
2018-05-25T01:06:10.678Z,1031.79860811
2018-05-25T01:06:23.131Z,1031.79860811
2018-05-25T01:06:35.524Z,1031.79860811
2018-05-25T01:06:47.945Z,1031.79860811
2018-05-25T01:07:00.339Z,1031.79860811
2018-05-25T01:07:12.742Z,1031.83247199
2018-05-25T01:07:25.135Z,1031.83247199
2018-05-25T01:07:37.544Z,1031.83247199
2018-05-25T01:07:49.962Z,1031.83247199
2018-05-25T01:08:02.375Z,1031.83247199
2018-05-25T01:08:14.771Z,1031.83247199
2018-05-25T01:08:27.190Z,1031.83247199
2018-05-25T01:08:39.591Z,1031.83247199
2018-05-25T01:08:51.995Z,1031.83247199
2018-05-25T01:09:04.428Z,1031.79860811
2018-05-25T01:09:16.836Z,1031.79860811
2018-05-25T01:09:29.252Z,1031.79860811
2018-05-25T01:09:41.651Z,1031.79860811
2018-05-25T01:09:54.071Z,1031.79860811
2018-05-25T01:10:06.469Z,1031.79860811
2018-05-25T01:10:18.896Z,1031.79860811
2018-05-25T01:10:31.313Z,1031.79860811
2018-05-25T01:10:43.736Z,1031.79860811
2018-05-25T01:10:56.130Z,1031.79860811
2018-05-25T01:11:08.537Z,1031.86633587
2018-05-25T01:11:20.955Z,1031.86633587
2018-05-25T01:11:33.341Z,1031.86633587
2018-05-25T01:11:45.757Z,1031.86633587
2018-05-25T01:11:58.168Z,1031.86633587
2018-05-25T01:12:10.609Z,1031.83247199
2018-05-25T01:12:23.146Z,1031.83247199
2018-05-25T01:12:35.609Z,1031.83247199
2018-05-25T01:12:48.009Z,1031.83247199
2018-05-25T01:13:00.413Z,1031.83247199
2018-05-25T01:13:12.812Z,1031.83247199
2018-05-25T01:13:25.216Z,1031.83247199
2018-05-25T01:13:37.612Z,1031.83247199
2018-05-25T01:13:50.005Z,1031.83247199
2018-05-25T01:14:02.405Z,1031.83247199
2018-05-25T01:14:14.823Z,1031.79860811
2018-05-25T01:14:27.231Z,1031.79860811
2018-05-25T01:14:39.623Z,1031.79860811
2018-05-25T01:14:52.029Z,1031.79860811
2018-05-25T01:15:04.701Z,1031.79860811
2018-05-25T01:15:17.107Z,1031.79860811
2018-05-25T01:15:29.502Z,1031.79860811
2018-05-25T01:15:41.899Z,1031.79860811
2018-05-25T01:15:54.309Z,1031.79860811
2018-05-25T01:16:06.735Z,1031.86633587
2018-05-25T01:16:19.155Z,1031.86633587
2018-05-25T01:16:31.549Z,1031.86633587
2018-05-25T01:16:43.951Z,1031.86633587
2018-05-25T01:16:56.364Z,1031.86633587
2018-05-25T01:17:08.811Z,1031.83247199
2018-05-25T01:17:21.224Z,1031.83247199
2018-05-25T01:17:33.620Z,1031.83247199
2018-05-25T01:17:46.039Z,1031.83247199
2018-05-25T01:17:58.771Z,1031.83247199
2018-05-25T01:18:11.209Z,1031.86633587
2018-05-25T01:18:23.878Z,1031.86633587
2018-05-25T01:18:36.277Z,1031.86633587
2018-05-25T01:18:48.682Z,1031.86633587
2018-05-25T01:19:01.077Z,1031.86633587
2018-05-25T01:19:13.497Z,1031.86633587
2018-05-25T01:19:25.887Z,1031.86633587
2018-05-25T01:19:38.290Z,1031.86633587
2018-05-25T01:19:50.693Z,1031.86633587
2018-05-25T01:20:03.110Z,1031.86633587
2018-05-25T01:20:15.514Z,1031.86633587
2018-05-25T01:20:27.918Z,1031.86633587
2018-05-25T01:20:40.327Z,1031.86633587
2018-05-25T01:20:52.725Z,1031.86633587
2018-05-25T01:21:05.122Z,1031.93406364
2018-05-25T01:21:17.534Z,1031.93406364
2018-05-25T01:21:29.929Z,1031.93406364
2018-05-25T01:21:42.351Z,1031.93406364
2018-05-25T01:21:54.751Z,1031.93406364
2018-05-25T01:22:07.146Z,1031.76474423
2018-05-25T01:22:19.538Z,1031.76474423
2018-05-25T01:22:31.963Z,1031.76474423
2018-05-25T01:22:44.375Z,1031.76474423
2018-05-25T01:22:56.825Z,1031.76474423
2018-05-25T01:23:09.255Z,1031.90019975
2018-05-25T01:23:21.654Z,1031.90019975
2018-05-25T01:23:34.087Z,1031.90019975
2018-05-25T01:23:46.489Z,1031.90019975
2018-05-25T01:23:58.891Z,1031.90019975
2018-05-25T01:24:11.293Z,1031.76474423
2018-05-25T01:24:23.707Z,1031.76474423
2018-05-25T01:24:36.109Z,1031.76474423
2018-05-25T01:24:48.512Z,1031.76474423
2018-05-25T01:25:00.904Z,1031.76474423
2018-05-25T01:25:13.329Z,1031.76474423
2018-05-25T01:25:25.724Z,1031.76474423
2018-05-25T01:25:38.131Z,1031.76474423
2018-05-25T01:25:50.529Z,1031.76474423
2018-05-25T01:26:02.937Z,1031.83247199
2018-05-25T01:26:15.339Z,1031.83247199
2018-05-25T01:26:27.738Z,1031.83247199
2018-05-25T01:26:40.183Z,1031.83247199
2018-05-25T01:26:52.591Z,1031.83247199
2018-05-25T01:27:05.003Z,1031.83247199
2018-05-25T01:27:17.430Z,1031.83247199
2018-05-25T01:27:29.834Z,1031.83247199
2018-05-25T01:27:42.506Z,1031.83247199
2018-05-25T01:27:54.925Z,1031.83247199
2018-05-25T01:28:07.325Z,1031.83247199
2018-05-25T01:28:19.717Z,1031.83247199
2018-05-25T01:28:32.138Z,1031.83247199
2018-05-25T01:28:44.537Z,1031.83247199
2018-05-25T01:28:56.937Z,1031.83247199
2018-05-25T01:29:09.335Z,1031.86633587
2018-05-25T01:29:21.759Z,1031.86633587
2018-05-25T01:29:34.164Z,1031.86633587
2018-05-25T01:29:46.558Z,1031.86633587
2018-05-25T01:29:58.961Z,1031.86633587
2018-05-25T01:30:11.365Z,1031.86633587
2018-05-25T01:30:23.775Z,1031.86633587
2018-05-25T01:30:36.177Z,1031.86633587
2018-05-25T01:30:48.576Z,1031.86633587
2018-05-25T01:31:00.982Z,1031.86633587
2018-05-25T01:31:13.381Z,1031.76474423
2018-05-25T01:31:25.784Z,1031.76474423
2018-05-25T01:31:38.207Z,1031.76474423
2018-05-25T01:31:50.606Z,1031.76474423
2018-05-25T01:32:03.013Z,1031.83247199
2018-05-25T01:32:15.420Z,1031.83247199
2018-05-25T01:32:27.834Z,1031.83247199
2018-05-25T01:32:40.238Z,1031.83247199
2018-05-25T01:32:52.722Z,1031.83247199
2018-05-25T01:33:05.136Z,1031.83247199
2018-05-25T01:33:17.560Z,1031.83247199
2018-05-25T01:33:29.956Z,1031.83247199
2018-05-25T01:33:42.368Z,1031.83247199
2018-05-25T01:33:54.770Z,1031.83247199
2018-05-25T01:34:07.195Z,1031.79860811
2018-05-25T01:34:19.611Z,1031.79860811
2018-05-25T01:34:32.009Z,1031.79860811
2018-05-25T01:34:44.424Z,1031.79860811
2018-05-25T01:34:56.867Z,1031.79860811
2018-05-25T01:35:09.257Z,1031.79860811
2018-05-25T01:35:21.671Z,1031.79860811
2018-05-25T01:35:34.077Z,1031.79860811
2018-05-25T01:35:46.479Z,1031.79860811
2018-05-25T01:35:58.881Z,1031.79860811
2018-05-25T01:36:11.272Z,1031.76474423
2018-05-25T01:36:23.671Z,1031.76474423
2018-05-25T01:36:36.073Z,1031.76474423
2018-05-25T01:36:48.479Z,1031.76474423
2018-05-25T01:37:00.882Z,1031.76474423
2018-05-25T01:37:13.282Z,1031.86633587
2018-05-25T01:37:25.679Z,1031.86633587
2018-05-25T01:37:38.094Z,1031.86633587
2018-05-25T01:37:50.538Z,1031.86633587
2018-05-25T01:38:02.939Z,1031.86633587
2018-05-25T01:38:15.506Z,1031.86633587
2018-05-25T01:38:27.948Z,1031.86633587
2018-05-25T01:38:40.491Z,1031.86633587
2018-05-25T01:38:52.879Z,1031.86633587
2018-05-25T01:39:05.286Z,1031.83247199
2018-05-25T01:39:17.685Z,1031.83247199
2018-05-25T01:39:30.102Z,1031.83247199
2018-05-25T01:39:42.504Z,1031.83247199
2018-05-25T01:39:54.939Z,1031.83247199
2018-05-25T01:40:07.340Z,1031.79860811
2018-05-25T01:40:19.735Z,1031.79860811
2018-05-25T01:40:32.128Z,1031.79860811
2018-05-25T01:40:44.526Z,1031.79860811
2018-05-25T01:40:57.015Z,1031.79860811
2018-05-25T01:41:09.431Z,1031.83247199
2018-05-25T01:41:21.832Z,1031.83247199
2018-05-25T01:41:34.241Z,1031.83247199
2018-05-25T01:41:46.678Z,1031.83247199
2018-05-25T01:41:59.087Z,1031.83247199
2018-05-25T01:42:11.496Z,1031.76474423
2018-05-25T01:42:23.904Z,1031.76474423
2018-05-25T01:42:36.300Z,1031.76474423
2018-05-25T01:42:48.708Z,1031.76474423
2018-05-25T01:43:01.140Z,1031.76474423
2018-05-25T01:43:13.563Z,1031.83247199
2018-05-25T01:43:25.959Z,1031.83247199
2018-05-25T01:43:38.364Z,1031.83247199
2018-05-25T01:43:50.770Z,1031.83247199
2018-05-25T01:44:03.179Z,1031.83247199
2018-05-25T01:44:15.581Z,1031.83247199
2018-05-25T01:44:27.985Z,1031.83247199
2018-05-25T01:44:40.395Z,1031.83247199
2018-05-25T01:44:52.834Z,1031.83247199
2018-05-25T01:45:05.256Z,1031.86633587
2018-05-25T01:45:17.673Z,1031.86633587
2018-05-25T01:45:30.095Z,1031.86633587
2018-05-25T01:45:42.534Z,1031.86633587
2018-05-25T01:45:54.955Z,1031.86633587
2018-05-25T01:46:07.370Z,1031.76474423
2018-05-25T01:46:19.765Z,1031.76474423
2018-05-25T01:46:32.255Z,1031.76474423
2018-05-25T01:46:44.671Z,1031.76474423
2018-05-25T01:46:57.113Z,1031.76474423
2018-05-25T01:47:09.527Z,1031.90019975
2018-05-25T01:47:21.938Z,1031.90019975
2018-05-25T01:47:34.342Z,1031.90019975
2018-05-25T01:47:46.744Z,1031.90019975
2018-05-25T01:47:59.157Z,1031.90019975
2018-05-25T01:48:11.572Z,1031.83247199
2018-05-25T01:48:24.156Z,1031.83247199
2018-05-25T01:48:36.565Z,1031.83247199
2018-05-25T01:48:48.983Z,1031.83247199
2018-05-25T01:49:01.375Z,1031.83247199
2018-05-25T01:49:13.828Z,1031.83247199
2018-05-25T01:49:26.286Z,1031.83247199
2018-05-25T01:49:38.687Z,1031.83247199
2018-05-25T01:49:51.087Z,1031.83247199
2018-05-25T01:50:03.491Z,1031.83247199
2018-05-25T01:50:15.906Z,1031.83247199
2018-05-25T01:50:28.373Z,1031.83247199
2018-05-25T01:50:40.785Z,1031.83247199
2018-05-25T01:50:53.196Z,1031.83247199
2018-05-25T01:51:05.609Z,1031.86633587
2018-05-25T01:51:18.068Z,1031.86633587
2018-05-25T01:51:30.465Z,1031.86633587
2018-05-25T01:51:42.919Z,1031.86633587
2018-05-25T01:51:55.331Z,1031.86633587
2018-05-25T01:52:07.731Z,1031.93406364
2018-05-25T01:52:20.292Z,1031.93406364
2018-05-25T01:52:32.692Z,1031.93406364
2018-05-25T01:52:45.116Z,1031.93406364
2018-05-25T01:52:57.513Z,1031.93406364
2018-05-25T01:53:09.919Z,1031.86633587
2018-05-25T01:53:22.314Z,1031.86633587
2018-05-25T01:53:34.729Z,1031.86633587
2018-05-25T01:53:47.133Z,1031.86633587
2018-05-25T01:53:59.528Z,1031.86633587
2018-05-25T01:54:11.960Z,1031.86633587
2018-05-25T01:54:24.407Z,1031.86633587
2018-05-25T01:54:36.823Z,1031.86633587
2018-05-25T01:54:49.232Z,1031.86633587
2018-05-25T01:55:01.641Z,1031.86633587
2018-05-25T01:55:14.097Z,1031.79860811
2018-05-25T01:55:26.767Z,1031.79860811
2018-05-25T01:55:39.168Z,1031.79860811
2018-05-25T01:55:51.572Z,1031.79860811
2018-05-25T01:56:03.983Z,1031.86633587
2018-05-25T01:56:16.372Z,1031.86633587
2018-05-25T01:56:28.762Z,1031.86633587
2018-05-25T01:56:41.164Z,1031.86633587
2018-05-25T01:56:53.563Z,1031.86633587
2018-05-25T01:57:05.971Z,1031.79860811
2018-05-25T01:57:18.385Z,1031.79860811
2018-05-25T01:57:30.808Z,1031.79860811
2018-05-25T01:57:43.213Z,1031.79860811
2018-05-25T01:57:55.617Z,1031.79860811
2018-05-25T01:58:08.042Z,1031.83247199
2018-05-25T01:58:20.432Z,1031.83247199
2018-05-25T01:58:32.832Z,1031.83247199
2018-05-25T01:58:45.298Z,1031.83247199
2018-05-25T01:58:57.695Z,1031.83247199
2018-05-25T01:59:10.124Z,1031.83247199
2018-05-25T01:59:22.533Z,1031.83247199
2018-05-25T01:59:34.975Z,1031.83247199
2018-05-25T01:59:47.383Z,1031.83247199
2018-05-25T01:59:59.772Z,1031.83247199
2018-05-25T02:00:12.204Z,1031.83247199
2018-05-25T02:00:24.682Z,1031.83247199
2018-05-25T02:00:37.148Z,1031.83247199
2018-05-25T02:00:49.584Z,1031.83247199
2018-05-25T02:01:02.009Z,1031.83247199
2018-05-25T02:01:14.547Z,1031.83247199
2018-05-25T02:01:26.963Z,1031.83247199
2018-05-25T02:01:39.353Z,1031.83247199
2018-05-25T02:01:51.905Z,1031.83247199
2018-05-25T02:02:04.302Z,1031.76474423
2018-05-25T02:02:16.701Z,1031.76474423
2018-05-25T02:02:29.101Z,1031.76474423
2018-05-25T02:02:41.522Z,1031.76474423
2018-05-25T02:02:53.923Z,1031.76474423
2018-05-25T02:03:06.346Z,1031.83247199
2018-05-25T02:03:18.744Z,1031.83247199
2018-05-25T02:03:31.150Z,1031.83247199
2018-05-25T02:03:43.569Z,1031.83247199
2018-05-25T02:03:55.956Z,1031.83247199
2018-05-25T02:04:08.387Z,1031.90019975
2018-05-25T02:04:20.784Z,1031.90019975
2018-05-25T02:04:33.183Z,1031.90019975
2018-05-25T02:04:45.583Z,1031.90019975
2018-05-25T02:04:57.985Z,1031.90019975
2018-05-25T02:05:10.556Z,1031.73088035
2018-05-25T02:05:22.967Z,1031.73088035
2018-05-25T02:05:35.418Z,1031.73088035
2018-05-25T02:05:47.801Z,1031.73088035
2018-05-25T02:06:00.194Z,1031.73088035
2018-05-25T02:06:12.597Z,1031.83247199
2018-05-25T02:06:25.009Z,1031.83247199
2018-05-25T02:06:37.400Z,1031.83247199
2018-05-25T02:06:49.803Z,1031.83247199
2018-05-25T02:07:02.207Z,1031.83247199